Kerrobert, Canada
Current Conditions -  °F | °C
As of 12:00 AM on Sunday 21 Dec 2014 (Local Time) from CYKY Reporting Station
Few Clouds Few Clouds  
Wind Chill:   Ceiling: Unl
Heat Index: 19°   Visibility: 15mi
Dew Point: 18°   Wind: 10mph
Humidity: 93%   Direction: 150°SSE
Pressure: 29.5"   Gusts: NA
Location:  51.92°N, 109.13°W
Report Text: CYKY 210600Z 15009KT 15SM FEW070 M07/M08 A2950 RMK AC1 SLP027
Loading
Personal Weather Stations






























Interactive Weather Map New forecast layout! Learn more

10-Day Weather Forecast

Advertisements
Track Severe Weather on mobile